Sonic Adventure (DX): Boss Rankings

Records: Times | Rings | Scores | Races | Bosses | Freestyle
Leaders: Times | Rings | Scores | Races | Bosses | Freestyle | Overall
Rank Player Percent Points Date
1 Sonicspeedruner 98.4% 34 04-22-17
2 Gamepro011 97.0% 64 04-22-17
3 Austinf 92.7% 155 04-22-17
4 DarkPolarNight 91.5% 180 04-22-17
5 Jawzun 89.5% 224 04-22-17
6 drminus 89.3% 227 04-22-17
7 Parax 87.5% 267 04-22-17
8 ike6252 87.1% 274 04-22-17
9 Dashjump 84.8% 323 04-22-17
10 Coolfansonic 84.8% 324 04-22-17
11 Avento128bits 84.4% 333 04-22-17
12 DarkspinesSonic 81.0% 405 04-22-17
13 THC98 78.8% 452 04-22-17
14 TheRealShadnic 77.7% 476 04-22-17
15 F-Man 76.8% 495 04-22-17
16 Marth 75.7% 519 04-22-17
17 Mariobutch 74.1% 554 04-22-17
18 yoshifan 74.0% 556 04-22-17
19 InferSaime 73.1% 574 04-22-17
20 PfoSonic 72.5% 587 04-22-17
21 HyperSonic7701 70.5% 630 04-22-17
22 RPGnutter 69.5% 651 04-22-17
23 Paragod 68.0% 683 04-22-17
24 mike89 67.6% 692 04-22-17
25 frankoredstrato 67.4% 697 04-22-17
26 sonicam 63.3% 784 04-22-17
27 Groudon199 63.0% 791 04-22-17
27 SadisticMystic 63.0% 791 04-22-17
29 xXMegaManXx 62.3% 805 04-22-17
30 Stefan 61.6% 820 04-22-17
31 Diamond 60.1% 852 04-22-17
32 Combo 57.9% 899 04-22-17
33 bertin 57.6% 905 04-22-17
34 SkyLights 54.9% 964 04-22-17
35 Arch 49.3% 1084 04-22-17
36 Fr3nZy 48.9% 1091 04-22-17
37 francisco 48.9% 1093 04-22-17
38 OmegaDJ 47.1% 1130 04-22-17
39 Andrea Ritsu 46.9% 1135 04-22-17
40 Omega Rafael Santos 45.7% 1161 04-22-17
41 P1 Pause 44.3% 1190 04-22-17
42 magnum12 42.0% 1240 04-22-17
43 VeritasDL 41.6% 1249 04-22-17
44 Auriman1 38.2% 1320 04-22-17
45 chainchumper 37.2% 1342 04-22-17
46 James_Bertolli 35.9% 1370 04-22-17
47 chaos shadow 35.8% 1373 04-22-17
48 Hunters13 34.2% 1407 04-22-17
48 teamblackarms 34.2% 1407 04-22-17
50 FuzZerd 33.3% 1425 04-22-17
51 Drakodan 32.8% 1436 04-22-17
52 Psymar 32.2% 1449 04-22-17
53 Cyan Ryan 32.1% 1452 04-22-17
53 Quartz 32.1% 1452 04-22-17
55 eggFL 31.7% 1460 04-22-17
56 Jerzia 31.0% 1475 04-22-17
57 GerbilSoft 30.9% 1477 04-22-17
58 BigAL49 30.7% 1481 04-22-17
59 elecmouse101 30.2% 1493 04-22-17
60 Nimrod 30.0% 1497 04-22-17
61 Thorn 29.9% 1499 04-22-17
61 Webber3000 29.9% 1499 04-22-17
63 videogamemaster777 29.6% 1504 04-22-17
64 Mo Player Banned 28.2% 1535 04-22-17
64 Turbos 28.2% 1535 04-22-17
66 Termon 27.1% 1558 04-22-17
67 Dave Cramer 26.3% 1575 04-22-17
68 Flying Fox 25.9% 1583 04-22-17
69 nuckrieg 24.9% 1605 04-22-17
70 buddychaos0415 24.8% 1607 04-22-17
71 Shadow Jacky 23.7% 1630 04-22-17
72 Cream147 21.4% 1681 04-22-17
73 supersonicfan 21.1% 1687 04-22-17
74 MiStEr_ShAoLiN 20.8% 1693 04-22-17
74 NintenDan 20.8% 1693 04-22-17
76 thewaytodawnnn 20.7% 1696 04-22-17
77 itsPersonnal 20.3% 1703 04-22-17
78 Aitamen 20.3% 1704 04-22-17
79 The T 20.1% 1709 04-22-17
80 Cybrax 20.0% 1710 04-22-17
81 supersonic465 19.9% 1713 04-22-17
82 SonicWinDX 19.5% 1721 04-22-17
83 Cruizer 18.7% 1737 04-22-17
84 VMU Player Banned 17.6% 1762 04-22-17
85 Game_Complete 17.0% 1774 04-22-17
86 The Great Lord Mick 16.7% 1781 04-22-17
87 Questionguy555 15.8% 1801 04-22-17
88 GreatStar 15.7% 1803 04-22-17
89 Spinballwizard 15.2% 1813 04-22-17
90 Sondow 14.5% 1828 04-22-17
91 sonicandamy Player Banned 14.2% 1835 04-22-17
92 Destroyer121121 13.8% 1842 04-22-17
93 GarnetPrincess 13.2% 1855 04-22-17
94 SonicAD 12.0% 1882 04-22-17
95 Don 11.4% 1894 04-22-17
96 Miles9999 11.1% 1901 04-22-17
97 SuperBlitzCraig 11.0% 1903 04-22-17
98 Siavash Tazari 10.8% 1906 04-22-17
99 Cutiefox 10.1% 1922 04-22-17
99 Psyknux 10.1% 1922 04-22-17
101 Werey 9.7% 1931 04-22-17
102 knuckles_sonic8 9.6% 1932 04-22-17
103 joecoolgames 9.4% 1936 04-22-17
104 mauserman 9.2% 1942 04-22-17
105 Badlex727 8.9% 1947 04-22-17
106 EngiNerd 8.8% 1949 04-22-17
107 Sonic Singularity 8.6% 1953 04-22-17
108 dShadow 8.4% 1959 04-22-17
109 Hipertails12 8.3% 1961 04-22-17
110 Aiko 8.2% 1963 04-22-17
111 Shanekilz 7.9% 1968 04-22-17
112 Therio 7.5% 1977 04-22-17
113 Mastakirby 7.4% 1980 04-22-17
114 TommyeAsY 7.0% 1989 04-22-17
115 FocusSight64 6.8% 1993 04-22-17
115 sonic29887 6.8% 1993 04-22-17
115 TheChaosEmeraIds 6.8% 1993 04-22-17
118 Chao_Fan 6.4% 2001 04-22-17
119 djmat 6.0% 2009 04-22-17
120 HHNNBBHHN 5.9% 2011 04-22-17
121 paulie9990 5.8% 2013 04-22-17
121 tal39h 5.8% 2013 04-22-17
123 Sogeking 5.4% 2023 04-22-17
124 Brian_pso 5.0% 2032 04-22-17
125 Chawkk 4.9% 2033 04-22-17
126 MK 4.5% 2041 04-22-17
126 SpinDashMaster 4.5% 2041 04-22-17
128 SilvertheAlmighty 4.5% 2042 04-22-17
129 N 4.3% 2047 04-22-17
130 MastaToken 4.1% 2050 04-22-17
131 Sonique Hedgehog 3.9% 2055 04-22-17
131 SpiritDragon1995 3.9% 2055 04-22-17
133 KinkyCadence 3.5% 2062 04-22-17
134 PsyBorg 3.4% 2065 04-22-17
135 Mad Andy 3.4% 2066 04-22-17
136 FSSRandomvids 3.3% 2068 04-22-17
137 koinu93 2.9% 2076 04-22-17
138 Rolken 2.8% 2077 04-22-17
138 Xia 2.8% 2077 04-22-17
140 andres430 2.5% 2084 04-22-17
141 crazy1993 2.2% 2091 04-22-17
141 dabestgamer 2.2% 2091 04-22-17
141 shadowblast63 Player Banned 2.2% 2091 04-22-17
144 Illidan 2.0% 2096 04-22-17
145 Richied 1.9% 2097 04-22-17
146 DanielTheFalcon 1.7% 2101 04-22-17
147 gamer1245 1.7% 2102 04-22-17
148 Iwannabelink 1.6% 2103 04-22-17
149 niscool 1.4% 2109 04-22-17
149 oTaiIilLsS 1.4% 2109 04-22-17
151 soniccoloursunleashed 1.3% 2110 04-22-17
152 ieatatsonic 1.1% 2115 04-22-17
152 Redd 1.1% 2115 04-22-17
154 Lil_Dude 0.8% 2121 04-22-17
154 LinksDarkArrows 0.8% 2121 04-22-17
156 JamminX42 0.5% 2128 04-22-17
157 Cbwade15 0.4% 2129 04-22-17
158 neaolas 0.3% 2131 04-22-17
159 BlankTH 0.2% 2134 04-22-17
160 Heroes_Hater 0.1% 2135 04-22-17
161 S-MS32X-S 0.0% 2137 04-22-17
162 KaM Mark MaK 0.0% 2139 04-22-17
162 MegabombBlade 0.0% 2139 04-22-17

This page is using the New Data Table System. [FUTURE]

Game ID: 3 | Category ID: 6
Hits: 4,495 | Hits This Month: 24 | DB Calls: 24 | Mem Usage: 5.35 MB | Time: 0.09s | Printable

The Sonic Center v3.9
Copyright 2003-2011 by The Sonic Center Team.